Time;durP1;ratioP1;P1;durP2;ratioP2;P2;SDS_P1;SDS_P2;PMS_P1;PMS_P2;Temp;Humidity;BMP_temperature;BMP_pressure;BME280_temperature;BME280_humidity;BME280_pressure;Samples;Min_cycle;Max_cycle;Signal;HPM_P1;HPM_P2
2022/11/04 00:01:43;;;;;;;6.05;4.60;;;;;;;9.81;100.00;99594.41;4936487;29;20170;-79
2022/11/04 00:04:11;;;;;;;4.60;3.60;;;;;;;9.75;100.00;99593.31;4936839;29;20150;-79
2022/11/04 00:06:38;;;;;;;4.90;3.58;;;;;;;9.78;100.00;99602.59;4936510;29;20051;-77
2022/11/04 00:09:07;;;;;;;5.18;3.50;;;;;;;9.79;100.00;99606.81;4936286;29;20095;-78
2022/11/04 00:14:18;;;;;;;3.30;2.50;;;;;;;9.89;100.00;99612.63;4936906;29;20511;-78
2022/11/04 00:28:41;;;;;;;5.00;3.10;;;;;;;10.02;100.00;99625.88;4936663;29;20067;-78
2022/11/04 00:30:31;;;;;;;4.40;3.20;;;;;;;10.03;99.99;99637.97;4937069;29;20328;-77
2022/11/04 00:35:48;;;;;;;4.53;3.10;;;;;;;9.99;100.00;99634.06;4929211;29;20051;-78
2022/11/04 00:38:15;;;;;;;6.90;3.00;;;;;;;10.03;100.00;99645.81;4937262;29;20130;-79
2022/11/04 00:40:42;;;;;;;5.90;2.85;;;;;;;10.03;100.00;99640.56;4938075;29;20079;-79
2022/11/04 00:43:08;;;;;;;5.80;3.30;;;;;;;9.99;100.00;99644.53;4938262;29;20087;-79
2022/11/04 00:45:35;;;;;;;4.68;3.17;;;;;;;9.97;100.00;99643.88;4938439;29;20130;-79
2022/11/04 00:48:03;;;;;;;5.70;3.08;;;;;;;10.01;100.00;99653.00;4938638;29;20077;-79
2022/11/04 00:50:30;;;;;;;6.63;3.20;;;;;;;9.95;100.00;99638.84;4940089;29;20048;-79
2022/11/04 00:52:59;;;;;;;4.15;3.30;;;;;;;9.97;100.00;99642.09;4940299;29;20115;-79
2022/11/04 00:55:25;;;;;;;4.13;3.40;;;;;;;9.97;100.00;99642.09;4939173;29;20430;-78
2022/11/04 00:57:52;;;;;;;6.55;3.55;;;;;;;10.07;100.00;99654.09;4940084;29;20135;-78
2022/11/04 01:00:19;;;;;;;5.15;3.28;;;;;;;10.06;100.00;99657.72;4940117;29;20094;-78
2022/11/04 01:02:47;;;;;;;6.35;3.35;;;;;;;10.12;100.00;99663.06;4940374;29;20487;-77
2022/11/04 01:05:15;;;;;;;6.20;3.22;;;;;;;10.08;100.00;99667.00;4941601;29;20164;-78
2022/11/04 01:07:42;;;;;;;4.78;3.47;;;;;;;10.11;100.00;99690.19;4943337;29;20048;-79
2022/11/04 01:10:09;;;;;;;6.18;3.53;;;;;;;10.09;100.00;99684.31;4942824;29;20061;-78
2022/11/04 01:12:36;;;;;;;4.32;3.50;;;;;;;10.13;100.00;99690.81;4940909;29;20059;-78
2022/11/04 01:15:02;;;;;;;4.43;3.42;;;;;;;10.18;100.00;99696.34;4941720;29;20110;-79
2022/11/04 01:17:29;;;;;;;3.25;2.88;;;;;;;10.17;100.00;99697.31;4944205;29;20115;-80
2022/11/04 01:19:55;;;;;;;6.85;3.38;;;;;;;10.11;100.00;99687.56;4960971;23;20056;-79
2022/11/04 01:22:24;;;;;;;8.57;3.63;;;;;;;10.04;100.00;99694.47;4958094;28;20130;-80
2022/11/04 01:24:50;;;;;;;4.03;3.15;;;;;;;9.99;100.00;99696.81;4961302;29;20082;-80
2022/11/04 01:27:17;;;;;;;4.47;3.17;;;;;;;9.95;100.00;99698.13;4961510;28;20079;-80
2022/11/04 01:29:43;;;;;;;3.78;3.10;;;;;;;9.87;100.00;99706.88;4962427;28;20051;-79
2022/11/04 01:32:10;;;;;;;6.63;3.35;;;;;;;9.84;100.00;99706.41;4946050;29;20114;-80
2022/11/04 01:34:37;;;;;;;4.80;3.47;;;;;;;9.79;100.00;99717.38;4943390;29;20134;-79
2022/11/04 01:37:03;;;;;;;3.45;2.70;;;;;;;9.67;100.00;99721.34;4955842;29;20087;-80
2022/11/04 01:39:31;;;;;;;5.65;2.88;;;;;;;9.56;100.00;99714.72;4960444;28;20083;-80
2022/11/04 01:41:58;;;;;;;3.20;2.83;;;;;;;9.44;100.00;99720.53;4950217;29;20059;-78
2022/11/04 01:44:48;;;;;;;5.95;3.20;;;;;;;9.37;100.00;99728.22;4942158;29;20075;-79
2022/11/04 01:47:17;;;;;;;4.13;2.90;;;;;;;9.27;100.00;99725.81;4958316;29;20082;-78
2022/11/04 01:49:48;;;;;;;3.28;2.97;;;;;;;9.19;100.00;99728.44;4960756;28;20106;-79
2022/11/04 01:52:20;;;;;;;5.95;3.00;;;;;;;9.21;100.00;99728.28;4960928;29;20094;-80
2022/11/04 01:54:51;;;;;;;3.30;2.63;;;;;;;9.13;100.00;99725.69;4950760;29;20146;-79
2022/11/04 01:57:23;;;;;;;7.82;2.85;;;;;;;9.07;100.00;99718.53;4942469;29;20083;-79
2022/11/04 01:59:50;;;;;;;9.60;3.17;;;;;;;9.01;100.00;99719.19;4940435;29;20142;-79
2022/11/04 02:02:17;;;;;;;5.72;2.95;;;;;;;8.98;100.00;99731.59;4958198;29;20126;-79
2022/11/04 02:04:44;;;;;;;4.22;2.70;;;;;;;8.97;100.00;99729.19;4960832;29;20106;-79
2022/11/04 02:07:12;;;;;;;5.88;2.88;;;;;;;8.95;100.00;99726.75;4960746;29;20146;-78
2022/11/04 02:09:41;;;;;;;5.85;2.83;;;;;;;8.91;100.00;99727.25;4945867;29;20047;-78
2022/11/04 02:14:54;;;;;;;7.72;2.58;;;;;;;8.82;100.00;99726.44;4961008;29;20061;-78
2022/11/04 02:18:14;;;;;;;7.57;2.58;;;;;;;8.75;100.00;99727.28;4943422;29;20055;-78
2022/11/04 02:20:53;;;;;;;6.80;2.47;;;;;;;8.69;100.00;99726.13;4884641;29;20069;-79
2022/11/04 02:23:48;;;;;;;8.82;3.10;;;;;;;8.60;100.00;99721.91;4948077;29;20047;-78
2022/11/04 02:26:55;;;;;;;5.43;2.80;;;;;;;8.50;100.00;99711.69;4960285;29;20066;-80
2022/11/04 02:29:34;;;;;;;3.25;2.28;;;;;;;8.45;100.00;99705.31;4960894;29;20086;-79
2022/11/04 02:32:10;;;;;;;9.07;2.72;;;;;;;8.45;100.00;99703.53;4945917;29;20083;-79
2022/11/04 02:34:43;;;;;;;8.95;3.20;;;;;;;8.35;100.00;99707.28;4940896;29;20131;-79
2022/11/04 02:37:20;;;;;;;6.95;2.67;;;;;;;8.32;100.00;99708.41;4941358;29;20134;-80
2022/11/04 02:39:54;;;;;;;5.82;2.60;;;;;;;8.39;100.00;99708.59;4952804;28;20053;-78
2022/11/04 02:42:29;;;;;;;7.05;2.88;;;;;;;8.41;100.00;99710.06;4969770;29;20071;-79
2022/11/04 02:45:11;;;;;;;10.25;2.75;;;;;;;8.30;100.00;99711.16;4962359;29;20083;-79
2022/11/04 02:47:43;;;;;;;5.72;2.58;;;;;;;8.35;100.00;99713.31;4967517;29;20146;-78
2022/11/04 02:50:13;;;;;;;3.50;2.13;;;;;;;8.32;100.00;99713.59;4952543;29;20052;-78
2022/11/04 02:52:44;;;;;;;6.35;2.88;;;;;;;8.22;100.00;99716.38;4944303;29;20079;-79
2022/11/04 02:55:16;;;;;;;7.32;2.70;;;;;;;8.21;100.00;99722.56;4939809;29;20135;-78
2022/11/04 02:57:47;;;;;;;8.02;2.75;;;;;;;8.24;100.00;99716.22;4958195;29;20137;-78
2022/11/04 03:00:19;;;;;;;4.13;2.47;;;;;;;8.13;100.00;99714.72;4956930;28;20447;-79
2022/11/04 03:02:51;;;;;;;12.95;3.28;;;;;;;8.04;100.00;99723.53;4939353;29;20138;-78
2022/11/04 03:05:21;;;;;;;5.00;2.63;;;;;;;7.96;100.00;99726.13;4939496;29;20090;-79
2022/11/04 03:07:51;;;;;;;4.60;2.40;;;;;;;8.02;100.00;99712.47;4944408;29;20098;-78
2022/11/04 03:10:22;;;;;;;6.80;2.63;;;;;;;8.13;100.00;99724.34;4962493;28;20076;-79
2022/11/04 03:12:53;;;;;;;7.22;2.60;;;;;;;8.20;100.00;99725.31;4965369;29;20075;-79
2022/11/04 03:15:26;;;;;;;9.73;2.88;;;;;;;8.23;100.00;99722.41;4962703;29;20071;-78
2022/11/04 03:17:55;;;;;;;;;;;;;;;8.38;100.00;99709.56;4945625;29;20090;-78
2022/11/04 03:20:26;;;;;;;7.13;2.40;;;;;;;8.38;100.00;99712.16;4940198;29;19922;-79
2022/11/04 03:22:59;;;;;;;5.63;2.28;;;;;;;8.32;100.00;99708.41;4939823;29;20487;-79
2022/11/04 03:25:29;;;;;;;8.52;2.70;;;;;;;8.29;100.00;99709.53;4942050;29;20469;-79
2022/11/04 03:28:05;;;;;;;7.85;2.63;;;;;;;8.27;100.00;99708.88;4959958;29;20150;-81
2022/11/04 03:30:40;;;;;;;5.90;2.72;;;;;;;8.20;100.00;99704.47;4960367;28;20433;-80
2022/11/04 03:33:18;;;;;;;10.18;2.85;;;;;;;8.11;100.00;99701.06;4944354;29;20082;-81
2022/11/04 03:35:45;;;;;;;4.53;2.40;;;;;;;8.09;100.00;99703.00;4944594;29;20134;-80
2022/11/04 03:38:12;;;;;;;8.80;2.90;;;;;;;8.09;100.00;99708.22;4952756;29;20079;-80
2022/11/04 03:40:38;;;;;;;8.07;2.92;;;;;;;8.06;100.00;99702.50;4963204;28;20494;-81
2022/11/04 03:43:11;;;;;;;7.18;2.83;;;;;;;8.01;100.00;99705.63;4962550;29;20062;-81
2022/11/04 03:45:40;;;;;;;9.25;2.65;;;;;;;8.02;100.00;99707.25;4957843;29;20075;-81
2022/11/04 03:48:07;;;;;;;4.90;2.65;;;;;;;7.95;100.00;99706.28;4942294;29;20055;-81
2022/11/04 03:50:40;;;;;;;7.38;2.75;;;;;;;7.94;100.00;99710.66;4941303;29;20082;-78
2022/11/04 03:53:08;;;;;;;6.93;3.10;;;;;;;7.88;100.00;99710.50;4940632;29;20063;-79
2022/11/04 03:55:45;;;;;;;7.03;2.60;;;;;;;7.80;100.00;99713.09;4957469;29;20089;-79
2022/11/04 03:58:21;;;;;;;11.25;3.72;;;;;;;7.72;100.00;99702.66;4939513;29;20091;-79
2022/11/04 04:00:56;;;;;;;4.35;2.45;;;;;;;7.65;100.00;99705.06;4945122;29;20388;-79
2022/11/04 04:03:30;;;;;;;6.07;2.65;;;;;;;7.56;100.00;99700.84;4958871;29;20130;-79
2022/11/04 04:06:03;;;;;;;10.68;3.17;;;;;;;7.54;100.00;99702.78;4959331;29;20051;-79
2022/11/04 04:08:39;;;;;;;6.55;3.00;;;;;;;7.50;100.00;99704.91;4958492;29;20111;-79
2022/11/04 04:11:17;;;;;;;9.15;3.40;;;;;;;7.48;100.00;99703.44;4950940;28;20047;-80
2022/11/04 04:13:52;;;;;;;9.23;2.97;;;;;;;7.44;100.00;99702.94;4940034;29;20546;-79
2022/11/04 04:16:26;;;;;;;6.65;3.20;;;;;;;7.47;100.00;99701.78;4959026;29;20130;-79
2022/11/04 04:18:58;;;;;;;8.93;3.20;;;;;;;7.43;100.00;99709.09;4968358;29;20066;-78
2022/11/04 04:21:29;;;;;;;9.32;2.75;;;;;;;7.38;100.00;99716.56;4969071;28;20053;-78
2022/11/04 04:29:29;;;;;;;8.60;3.40;;;;;;;7.25;100.00;99724.00;4957678;28;20062;-80
2022/11/04 04:31:59;;;;;;;9.30;3.47;;;;;;;7.23;100.00;99723.34;4943850;29;20157;-79
2022/11/04 04:34:28;;;;;;;9.00;3.35;;;;;;;7.18;100.00;99717.78;4939099;29;20055;-79
2022/11/04 04:37:00;;;;;;;8.13;3.28;;;;;;;7.22;100.00;99724.31;4939669;29;20055;-78
2022/11/04 04:45:04;;;;;;;6.32;3.55;;;;;;;7.14;100.00;99726.88;4958028;29;20065;-79
2022/11/04 04:47:39;;;;;;;11.88;3.67;;;;;;;7.13;100.00;99731.25;4957307;29;20145;-79
2022/11/04 04:50:07;;;;;;;10.57;3.38;;;;;;;7.03;100.00;99732.38;4949487;29;20558;-79
2022/11/04 04:52:38;;;;;;;9.98;3.75;;;;;;;6.93;100.00;99741.09;4938531;29;20075;-79
2022/11/04 04:55:05;;;;;;;7.75;3.03;;;;;;;6.91;100.00;99732.63;4938717;29;20087;-79
2022/11/04 04:57:32;;;;;;;11.88;3.60;;;;;;;6.85;100.00;99738.44;4955335;28;20131;-78
2022/11/04 04:59:59;;;;;;;8.70;3.67;;;;;;;6.77;100.00;99730.59;4948751;29;20112;-78
2022/11/04 05:02:25;;;;;;;7.07;3.40;;;;;;;6.79;100.00;99735.63;4936950;29;20079;-78
2022/11/04 05:04:55;;;;;;;7.45;3.25;;;;;;;6.72;100.00;99737.22;4937629;29;20094;-78
2022/11/04 05:07:21;;;;;;;6.75;3.47;;;;;;;6.68;100.00;99738.47;4938904;29;20134;-79
2022/11/04 05:09:48;;;;;;;9.02;3.53;;;;;;;6.64;100.00;99740.56;4937592;29;20400;-79
2022/11/04 05:12:14;;;;;;;8.88;3.83;;;;;;;6.59;100.00;99743.66;4950538;29;20112;-79
2022/11/04 05:14:41;;;;;;;8.20;3.25;;;;;;;6.55;100.00;99744.09;4956348;29;20047;-79
2022/11/04 05:17:08;;;;;;;8.80;3.83;;;;;;;6.49;100.00;99742.09;4939998;29;20257;-79
2022/11/04 05:19:34;;;;;;;10.77;3.58;;;;;;;6.41;100.00;99734.25;4938485;29;20138;-81
2022/11/04 05:22:02;;;;;;;9.57;3.95;;;;;;;6.39;100.00;99733.56;4940284;29;20134;-80
2022/11/04 05:24:29;;;;;;;8.93;3.80;;;;;;;6.34;100.00;99739.22;4940421;29;20079;-79
2022/11/04 05:26:56;;;;;;;6.22;3.42;;;;;;;6.25;100.00;99730.53;4950316;29;20127;-78
2022/11/04 05:29:22;;;;;;;11.88;4.10;;;;;;;6.23;100.00;99737.66;4946659;29;20518;-80
2022/11/04 05:31:49;;;;;;;13.02;4.00;;;;;;;6.20;100.00;99731.97;4953357;29;20161;-80
2022/11/04 05:34:15;;;;;;;6.25;3.88;;;;;;;6.19;100.00;99738.13;4958659;29;20466;-79
2022/11/04 05:36:42;;;;;;;13.43;3.80;;;;;;;6.14;100.00;99742.97;4960738;29;20075;-78
2022/11/04 05:39:13;;;;;;;9.65;4.07;;;;;;;6.13;100.00;99739.56;4964677;29;20094;-79
2022/11/04 05:41:39;;;;;;;9.95;3.92;;;;;;;6.17;100.00;99747.84;4947611;28;20102;-81
2022/11/04 05:44:08;;;;;;;10.00;4.45;;;;;;;6.24;100.00;99752.28;4938439;29;20482;-80
2022/11/04 05:46:35;;;;;;;9.90;4.97;;;;;;;6.31;100.00;99753.31;4949849;29;20078;-79
2022/11/04 05:49:01;;;;;;;9.88;5.00;;;;;;;6.39;100.00;99752.59;4957055;29;20086;-79
2022/11/04 05:51:29;;;;;;;13.48;5.40;;;;;;;6.29;100.00;99760.47;4955878;28;20105;-79
2022/11/04 05:53:56;;;;;;;12.18;4.80;;;;;;;6.29;100.00;99757.84;4940678;29;20154;-80
2022/11/04 05:56:23;;;;;;;13.52;5.38;;;;;;;6.38;100.00;99756.16;4938927;29;20083;-80
2022/11/04 05:58:50;;;;;;;11.55;4.28;;;;;;;6.38;100.00;99756.16;4941531;29;20126;-79
2022/11/04 06:01:26;;;;;;;15.35;4.95;;;;;;;6.43;100.00;99751.31;4949792;29;20078;-80
2022/11/04 06:03:53;;;;;;;13.60;4.65;;;;;;;6.46;100.00;99752.81;4959808;29;20055;-80
2022/11/04 06:06:20;;;;;;;12.40;5.15;;;;;;;6.52;100.00;99760.00;4963446;29;20527;-80
2022/11/04 06:08:51;;;;;;;17.63;4.85;;;;;;;6.81;100.00;99751.91;4964595;28;20130;-80
2022/11/04 06:11:18;;;;;;;14.70;4.57;;;;;;;6.95;100.00;99772.97;4954367;28;20075;-81
2022/11/04 06:13:46;;;;;;;11.70;4.28;;;;;;;6.99;100.00;99763.06;4943418;29;20110;-82
2022/11/04 06:16:13;;;;;;;10.18;5.35;;;;;;;6.94;100.00;99763.53;4944598;29;20106;-82
2022/11/04 06:18:40;;;;;;;9.23;4.38;;;;;;;6.90;100.00;99772.59;4941414;29;20210;-81
2022/11/04 06:21:20;;;;;;;13.52;4.20;;;;;;;6.90;100.00;99775.19;4941379;29;20087;-81
2022/11/04 06:23:46;;;;;;;10.18;4.55;;;;;;;6.93;100.00;99782.69;4954408;29;20133;-81
2022/11/04 06:26:13;;;;;;;16.27;5.22;;;;;;;7.02;100.00;99780.16;4955943;29;20071;-80
2022/11/04 06:28:40;;;;;;;10.65;4.97;;;;;;;7.02;100.00;99780.16;4942241;29;20562;-81
2022/11/04 06:31:10;;;;;;;11.98;5.50;;;;;;;6.98;100.00;99785.66;4950285;29;20061;-81
2022/11/04 06:33:37;;;;;;;14.75;5.22;;;;;;;6.88;100.00;99787.53;4961145;29;20478;-81
2022/11/04 06:36:06;;;;;;;13.48;5.20;;;;;;;6.79;100.00;99791.06;4956324;29;20079;-80
2022/11/04 06:38:34;;;;;;;15.52;5.60;;;;;;;6.78;100.00;99799.81;4941268;29;20067;-81
2022/11/04 06:41:01;;;;;;;12.65;5.78;;;;;;;6.76;100.00;99800.94;4942921;29;20138;-81
2022/11/04 06:43:28;;;;;;;12.52;5.53;;;;;;;6.77;100.00;99808.59;4941443;29;20475;-80
2022/11/04 06:45:55;;;;;;;12.38;5.40;;;;;;;6.85;100.00;99807.84;4950458;29;20103;-80
2022/11/04 06:48:23;;;;;;;9.68;4.93;;;;;;;6.94;100.00;99806.94;4960343;29;20051;-80
2022/11/04 06:50:50;;;;;;;12.70;4.80;;;;;;;6.90;100.00;99814.22;4960363;28;20078;-80
2022/11/04 06:53:17;;;;;;;9.27;5.25;;;;;;;6.90;100.00;99814.22;4959221;29;20130;-80
2022/11/04 06:55:44;;;;;;;11.45;5.07;;;;;;;6.89;100.00;99822.16;4941150;29;20075;-79
2022/11/04 06:58:10;;;;;;;13.20;4.82;;;;;;;6.82;100.00;99818.53;4939447;29;20051;-79
2022/11/04 07:00:37;;;;;;;13.30;5.20;;;;;;;6.79;100.00;99817.06;4940141;29;20079;-79
2022/11/04 07:03:04;;;;;;;8.40;4.80;;;;;;;6.88;100.00;99828.34;4940621;29;20083;-80
2022/11/04 07:05:34;;;;;;;13.70;5.85;;;;;;;6.89;100.00;99833.38;4940260;29;20115;-79
2022/11/04 07:08:00;;;;;;;10.18;6.00;;;;;;;6.97;100.00;99837.84;4940476;29;20122;-79
2022/11/04 07:10:27;;;;;;;13.05;6.20;;;;;;;7.05;100.00;99843.09;4943873;29;20149;-78
2022/11/04 07:12:54;;;;;;;13.82;6.18;;;;;;;7.12;100.00;99853.69;4958928;29;20083;-79
2022/11/04 07:15:21;;;;;;;16.30;6.93;;;;;;;7.15;100.00;99848.19;4957070;29;20055;-78
2022/11/04 07:17:47;;;;;;;14.85;7.53;;;;;;;7.20;100.00;99853.75;4958295;29;20079;-81
2022/11/04 07:20:14;;;;;;;16.58;10.05;;;;;;;7.27;100.00;99863.38;4979607;23;20106;-78
2022/11/04 07:22:42;;;;;;;13.18;7.53;;;;;;;7.29;100.00;99865.84;4937716;29;20148;-78
2022/11/04 07:25:09;;;;;;;12.20;7.50;;;;;;;7.36;100.00;99856.44;4940980;29;20594;-79
2022/11/04 07:27:36;;;;;;;11.15;5.40;;;;;;;7.42;100.00;99871.44;4940961;29;20063;-80
2022/11/04 07:30:02;;;;;;;14.27;5.47;;;;;;;7.46;100.00;99871.97;4941784;29;20123;-80
2022/11/04 07:32:32;;;;;;;10.73;5.72;;;;;;;7.46;100.00;99872.78;4930470;29;20112;-79
2022/11/04 07:34:58;;;;;;;13.10;5.13;;;;;;;7.40;100.00;99878.59;4926868;29;20131;-80
2022/11/04 07:37:25;;;;;;;12.45;5.32;;;;;;;7.35;100.00;99886.03;4931356;29;20051;-80
2022/11/04 07:39:53;;;;;;;8.55;5.10;;;;;;;7.42;100.00;99892.28;4935520;29;20055;-80
2022/11/04 07:42:20;;;;;;;14.27;5.18;;;;;;;7.50;100.00;99894.94;4929655;29;20127;-79
2022/11/04 07:44:47;;;;;;;11.23;5.45;;;;;;;7.51;100.00;99898.34;4938959;29;20574;-80
2022/11/04 07:47:13;;;;;;;9.82;5.38;;;;;;;7.65;100.00;99902.97;4922670;29;20080;-80
2022/11/04 07:49:40;;;;;;;14.85;9.57;;;;;;;7.82;100.00;99909.06;4930728;29;20541;-79
2022/11/04 07:52:06;;;;;;;9.00;5.38;;;;;;;7.88;100.00;99913.66;4932339;29;20048;-80
2022/11/04 07:54:33;;;;;;;10.40;5.80;;;;;;;7.92;100.00;99913.19;4926470;29;20060;-80
2022/11/04 07:57:01;;;;;;;11.68;5.40;;;;;;;7.93;100.00;99927.03;4940102;29;20082;-79
2022/11/04 07:59:28;;;;;;;13.65;5.30;;;;;;;7.97;100.00;99920.56;4936048;29;20431;-79
2022/11/04 08:01:55;;;;;;;10.25;4.82;;;;;;;8.00;100.00;99925.44;4928903;29;20044;-79
2022/11/04 08:04:21;;;;;;;9.95;5.50;;;;;;;8.11;100.00;99925.16;4932937;29;20458;-80
2022/11/04 08:06:48;;;;;;;12.63;4.55;;;;;;;8.21;100.00;99925.84;4935155;29;20342;-78
2022/11/04 08:09:15;;;;;;;12.05;5.10;;;;;;;8.20;100.00;99926.00;4942092;29;20062;-79
2022/11/04 08:11:41;;;;;;;9.25;4.90;;;;;;;8.29;100.00;99918.06;4935395;29;20082;-79
2022/11/04 08:14:10;;;;;;;9.35;4.80;;;;;;;8.41;100.00;99920.41;4950556;29;20063;-80
2022/11/04 08:16:36;;;;;;;8.98;5.00;;;;;;;8.56;100.00;99926.59;4935559;29;20469;-79
2022/11/04 08:19:03;;;;;;;10.73;5.00;;;;;;;8.54;100.00;99918.13;4947273;29;20133;-80
2022/11/04 08:21:31;;;;;;;10.48;4.90;;;;;;;8.48;100.00;99910.97;4939953;29;20110;-80
2022/11/04 08:23:57;;;;;;;10.45;5.20;;;;;;;8.64;100.00;99916.19;4941180;29;20087;-80
2022/11/04 08:26:24;;;;;;;10.73;5.20;;;;;;;8.73;100.00;99919.63;4937413;29;20197;-81
2022/11/04 08:28:51;;;;;;;9.73;4.72;;;;;;;8.85;100.00;99913.94;4930531;29;20542;-80
2022/11/04 08:31:23;;;;;;;11.68;4.43;;;;;;;8.98;100.00;99916.84;4923499;29;20520;-80
2022/11/04 08:33:50;;;;;;;12.20;4.75;;;;;;;9.05;100.00;99927.47;4923940;29;20051;-79
2022/11/04 08:36:18;;;;;;;12.65;4.22;;;;;;;8.98;100.00;99921.25;4922972;29;20078;-80
2022/11/04 08:38:45;;;;;;;10.10;4.53;;;;;;;9.02;100.00;99925.19;4935870;29;20116;-81
2022/11/04 08:41:14;;;;;;;10.10;4.80;;;;;;;8.98;100.00;99929.91;4932875;29;20087;-80
2022/11/04 08:43:41;;;;;;;15.30;5.00;;;;;;;8.95;100.00;99917.22;4924643;29;20052;-81
2022/11/04 08:46:10;;;;;;;10.88;4.40;;;;;;;8.99;100.00;99915.06;4924059;29;20562;-79
2022/11/04 08:48:39;;;;;;;14.98;5.50;;;;;;;9.13;100.00;99919.63;4923861;29;20139;-81
2022/11/04 08:51:10;;;;;;;13.23;5.55;;;;;;;9.18;100.00;99912.13;4924534;29;20076;-81
2022/11/04 08:53:37;;;;;;;12.50;5.10;;;;;;;9.22;100.00;99910.00;4924089;29;20091;-78
2022/11/04 08:56:10;;;;;;;8.15;4.60;;;;;;;9.21;100.00;99908.38;4942370;29;20079;-81
2022/11/04 08:58:36;;;;;;;9.48;4.40;;;;;;;9.43;100.00;99928.59;4943202;29;20109;-79
2022/11/04 09:01:04;;;;;;;10.50;5.13;;;;;;;9.27;100.00;99915.56;4943682;29;20552;-80
2022/11/04 09:03:31;;;;;;;14.50;4.88;;;;;;;9.42;100.00;99921.75;4933150;29;20096;-80
2022/11/04 09:05:59;;;;;;;7.85;4.95;;;;;;;9.65;100.00;99922.66;4925647;29;20056;-79
2022/11/04 09:08:26;;;;;;;9.15;5.07;;;;;;;9.67;100.00;99921.69;4924483;29;20052;-80
2022/11/04 09:10:52;;;;;;;11.73;5.07;;;;;;;9.54;100.00;99919.59;4925169;29;20534;-80
2022/11/04 09:13:19;;;;;;;10.60;5.57;;;;;;;9.63;100.00;99926.41;4924553;29;20044;-80
2022/11/04 09:15:47;;;;;;;12.15;5.60;;;;;;;9.48;100.00;99915.03;4923933;29;20116;-79
2022/11/04 09:18:14;;;;;;;12.57;5.63;;;;;;;9.57;100.00;99927.91;4924128;29;20060;-80
2022/11/04 09:20:41;;;;;;;10.63;5.30;;;;;;;9.48;100.00;99921.06;4924594;29;20048;-82
2022/11/04 09:23:09;;;;;;;13.85;5.30;;;;;;;9.50;100.00;99928.72;4924651;29;20509;-81
2022/11/04 09:25:36;;;;;;;12.50;5.25;;;;;;;9.51;100.00;99922.53;4943898;29;20082;-81
2022/11/04 09:28:03;;;;;;;12.98;5.75;;;;;;;9.62;100.00;99907.31;4943321;29;20186;-81
2022/11/04 09:30:30;;;;;;;13.70;5.47;;;;;;;9.68;100.00;99910.25;4926869;29;20099;-80
2022/11/04 09:32:57;;;;;;;13.25;6.03;;;;;;;9.74;100.00;99910.41;4925540;29;20048;-81
2022/11/04 09:35:26;;;;;;;13.80;5.97;;;;;;;9.60;100.00;99909.28;4935288;29;20139;-80
2022/11/04 09:37:52;;;;;;;14.18;6.10;;;;;;;9.77;100.00;99912.69;4925020;29;20040;-82
2022/11/04 09:40:24;;;;;;;9.70;5.80;;;;;;;9.88;100.00;99911.50;4924729;29;20076;-80
2022/11/04 09:43:10;;;;;;;11.32;6.03;;;;;;;9.92;100.00;99918.03;4925019;29;20127;-79
2022/11/04 09:45:41;;;;;;;12.38;5.68;;;;;;;10.05;100.00;99922.69;4930505;29;20102;-79
2022/11/04 09:48:18;;;;;;;11.30;5.70;;;;;;;10.12;100.00;99924.47;4946027;29;20175;-79
2022/11/04 09:50:48;;;;;;;14.65;6.13;;;;;;;10.13;100.00;99926.09;4947974;29;20059;-81
2022/11/04 09:53:19;;;;;;;10.20;5.40;;;;;;;10.14;100.00;99927.72;4948940;29;20044;-83
2022/11/04 09:55:54;;;;;;;9.35;5.32;;;;;;;10.27;100.00;99924.59;4946539;29;20090;-84
2022/11/04 09:58:21;;;;;;;8.90;5.13;;;;;;;10.32;99.30;99919.66;4935685;29;20583;-82
2022/11/04 10:00:55;;;;;;;8.35;5.07;;;;;;;10.58;99.99;99925.38;4929775;29;20515;-83
2022/11/04 10:03:37;;;;;;;10.48;5.40;;;;;;;10.81;99.83;99925.41;4930602;29;20048;-84
2022/11/04 10:06:19;;;;;;;8.23;5.43;;;;;;;11.05;99.24;99926.19;4931037;29;20052;-83
2022/11/04 10:08:58;;;;;;;10.20;5.37;;;;;;;11.04;97.46;99929.81;4929691;29;20094;-83
2022/11/04 10:11:37;;;;;;;13.30;5.47;;;;;;;10.62;97.29;99933.72;4929293;29;20060;-81
2022/11/04 10:14:38;;;;;;;12.63;5.68;;;;;;;10.82;96.71;99937.50;4929226;29;20090;-83
2022/11/04 10:17:20;;;;;;;12.30;6.15;;;;;;;10.96;96.21;99934.13;4926024;29;20515;-83
2022/11/04 10:20:01;;;;;;;14.68;6.07;;;;;;;11.31;96.07;99944.97;4927990;29;20492;-83
2022/11/04 10:22:33;;;;;;;10.90;5.00;;;;;;;11.26;95.63;99937.66;4927522;29;20125;-83
2022/11/04 10:25:08;;;;;;;10.75;5.43;;;;;;;11.31;95.80;99937.13;4926579;29;20051;-83
2022/11/04 10:27:38;;;;;;;12.65;5.88;;;;;;;11.62;95.87;99927.31;4928718;29;20091;-81
2022/11/04 10:30:14;;;;;;;11.65;5.68;;;;;;;11.66;94.74;99940.06;4928657;29;20056;-83
2022/11/04 10:32:51;;;;;;;12.25;5.75;;;;;;;11.81;94.25;99936.47;4928332;29;20048;-83
2022/11/04 10:35:31;;;;;;;13.90;5.28;;;;;;;11.73;92.95;99938.34;4930756;29;20116;-83
2022/11/04 10:38:10;;;;;;;10.32;5.60;;;;;;;11.38;93.54;99947.69;4929534;29;20051;-83
2022/11/04 10:40:39;;;;;;;13.45;5.50;;;;;;;11.60;93.69;99944.19;4929331;29;20059;-82
2022/11/04 10:43:13;;;;;;;7.35;4.47;;;;;;;11.76;93.27;99943.22;4929592;29;20056;-82
2022/11/04 10:45:49;;;;;;;15.15;4.97;;;;;;;11.79;92.40;99945.53;4928064;29;20052;-83
2022/11/04 10:48:25;;;;;;;11.73;5.03;;;;;;;12.13;92.61;99947.56;4926732;29;20056;-83
2022/11/04 10:50:55;;;;;;;14.27;4.75;;;;;;;12.22;92.10;99951.72;4929217;29;20052;-82
2022/11/04 10:53:25;;;;;;;11.70;4.32;;;;;;;12.34;90.57;99962.53;4928050;29;20214;-82
2022/11/04 10:55:59;;;;;;;11.57;4.35;;;;;;;12.33;90.23;99953.88;4928208;29;20048;-80
2022/11/04 10:58:30;;;;;;;9.93;4.30;;;;;;;12.49;91.02;99958.91;4927850;29;20063;-83
2022/11/04 11:00:58;;;;;;;8.57;4.50;;;;;;;12.51;90.61;99961.34;4927969;29;20052;-80
2022/11/04 11:03:31;;;;;;;8.65;4.93;;;;;;;12.56;90.21;99985.22;4928379;29;20087;-82
2022/11/04 11:06:13;;;;;;;11.52;5.00;;;;;;;12.39;91.07;99968.06;4928168;29;20056;-83
2022/11/04 11:08:41;;;;;;;10.48;5.80;;;;;;;12.37;91.27;99975.28;4928192;29;20059;-84
2022/11/04 11:11:08;;;;;;;7.70;4.63;;;;;;;12.38;90.99;99974.31;4928598;29;20048;-82
2022/11/04 11:13:38;;;;;;;12.43;5.28;;;;;;;12.43;90.47;99971.94;4928344;29;20080;-83
2022/11/04 11:16:12;;;;;;;9.55;5.07;;;;;;;12.36;90.70;99973.66;4929021;29;20076;-83
2022/11/04 11:18:40;;;;;;;8.95;4.95;;;;;;;12.74;90.73;99980.41;4927579;29;20052;-83
2022/11/04 11:21:14;;;;;;;9.68;4.30;;;;;;;12.63;88.78;99960.69;4927951;29;20052;-81
2022/11/04 11:23:45;;;;;;;9.02;4.38;;;;;;;12.57;88.31;99971.09;4930411;29;20055;-83
2022/11/04 11:26:15;;;;;;;6.70;3.80;;;;;;;12.52;88.05;99949.84;4929439;29;20095;-84
2022/11/04 11:28:49;;;;;;;8.88;3.85;;;;;;;12.74;88.24;99972.53;4928035;29;20059;-82
2022/11/04 11:31:22;;;;;;;6.97;4.05;;;;;;;12.87;87.86;99990.19;4928524;29;20055;-83
2022/11/04 11:33:55;;;;;;;9.57;3.55;;;;;;;12.83;86.24;99997.63;4927278;29;20056;-83
2022/11/04 11:36:25;;;;;;;6.97;4.03;;;;;;;12.89;86.69;99996.88;4927800;29;20057;-83
2022/11/04 11:39:00;;;;;;;7.47;3.28;;;;;;;12.98;87.72;99999.41;4927749;29;20056;-81
2022/11/04 11:41:33;;;;;;;7.93;4.28;;;;;;;13.03;86.28;99991.78;4926942;29;20056;-83
2022/11/04 11:44:20;;;;;;;7.82;2.83;;;;;;;13.23;86.42;99977.06;4926837;29;20048;-83
2022/11/04 11:46:53;;;;;;;4.57;2.65;;;;;;;13.35;84.33;99991.28;4926989;29;20056;-83
2022/11/04 11:49:27;;;;;;;4.97;2.42;;;;;;;13.35;84.95;99980.78;4927233;29;20446;-83
2022/11/04 11:51:53;;;;;;;3.15;2.28;;;;;;;13.24;84.82;99995.22;4927136;29;20056;-83
2022/11/04 11:54:28;;;;;;;4.60;2.55;;;;;;;13.15;84.74;99990.28;4926819;29;20094;-83
2022/11/04 11:56:56;;;;;;;5.97;2.28;;;;;;;13.24;84.49;99989.97;4926330;29;20044;-83
2022/11/04 11:59:35;;;;;;;7.43;2.95;;;;;;;13.14;84.43;99991.28;4925836;29;20088;-83
2022/11/04 12:02:20;;;;;;;6.53;2.95;;;;;;;13.19;84.30;99991.56;4926740;29;20135;-80
2022/11/04 12:04:46;;;;;;;6.95;2.88;;;;;;;13.18;85.99;99989.94;4926065;29;20048;-83
2022/11/04 12:07:23;;;;;;;7.72;3.17;;;;;;;13.14;86.69;99997.34;4924830;29;20119;-83
2022/11/04 12:10:01;;;;;;;7.90;3.42;;;;;;;13.17;86.36;100004.06;4924968;29;20052;-84
2022/11/04 12:12:49;;;;;;;6.20;2.97;;;;;;;13.20;86.32;100008.97;4925107;29;20133;-83
2022/11/04 12:15:30;;;;;;;6.32;2.85;;;;;;;12.80;85.02;99992.75;4925680;29;20079;-82